Time;durP1;ratioP1;P1;durP2;ratioP2;P2;SDS_P1;SDS_P2;PMS_P1;PMS_P2;Temp;Humidity;BMP_temperature;BMP_pressure;BME280_temperature;BME280_humidity;BME280_pressure;Samples;Min_cycle;Max_cycle;Signal;HPM_P1;HPM_P2
2022/07/24 00:00:15;;;;;;;8.30;4.05;;;20.60;79.80;;;;;;5075396;28;20086;-74
2022/07/24 00:02:41;;;;;;;6.18;4.53;;;20.60;79.90;;;;;;5075397;28;20461;-74
2022/07/24 00:05:08;;;;;;;7.78;4.72;;;20.50;79.80;;;;;;5075474;28;20074;-74
2022/07/24 00:07:36;;;;;;;7.20;4.63;;;20.50;79.80;;;;;;5075399;28;20631;-74
2022/07/24 00:10:05;;;;;;;7.13;5.25;;;20.50;79.80;;;;;;5075629;28;20031;-74
2022/07/24 00:12:31;;;;;;;8.10;4.80;;;20.50;80.00;;;;;;5075563;28;20481;-74
2022/07/24 00:14:57;;;;;;;6.60;4.68;;;20.50;80.40;;;;;;5075037;28;20029;-74
2022/07/24 00:17:22;;;;;;;9.57;6.00;;;20.40;80.70;;;;;;5075098;28;20099;-74
2022/07/24 00:19:48;;;;;;;9.98;5.88;;;20.40;80.80;;;;;;5075162;28;20107;-75
2022/07/24 00:22:14;;;;;;;8.43;5.25;;;20.40;80.70;;;;;;5074941;28;20107;-74
2022/07/24 00:24:40;;;;;;;7.63;5.43;;;20.30;80.60;;;;;;5074928;28;20392;-74
2022/07/24 00:27:06;;;;;;;7.63;4.97;;;20.30;80.60;;;;;;5075109;28;20032;-74
2022/07/24 00:29:31;;;;;;;8.90;5.57;;;20.30;80.70;;;;;;5075079;28;20048;-74
2022/07/24 00:31:57;;;;;;;8.20;5.10;;;20.30;80.90;;;;;;5074900;28;20021;-74
2022/07/24 00:34:23;;;;;;;10.27;5.47;;;20.20;80.90;;;;;;5074932;28;20036;-74
2022/07/24 00:36:48;;;;;;;9.70;5.65;;;20.20;81.00;;;;;;5074805;28;20036;-74
2022/07/24 00:39:14;;;;;;;8.55;6.07;;;20.20;81.10;;;;;;5074658;28;20060;-74
2022/07/24 00:41:40;;;;;;;8.50;6.10;;;20.10;81.10;;;;;;5074771;28;20063;-74
2022/07/24 00:44:08;;;;;;;10.05;5.95;;;20.10;81.20;;;;;;5055182;28;20032;-74
2022/07/24 00:46:36;;;;;;;9.18;5.95;;;20.10;81.20;;;;;;5073859;28;20016;-74
2022/07/24 00:49:04;;;;;;;8.73;6.40;;;20.00;81.30;;;;;;5074136;28;20056;-74
2022/07/24 00:51:30;;;;;;;10.80;6.35;;;20.00;81.40;;;;;;5073920;28;20028;-74
2022/07/24 00:53:56;;;;;;;7.60;5.55;;;20.00;81.60;;;;;;5074194;28;20377;-74
2022/07/24 00:56:21;;;;;;;9.82;6.53;;;19.90;81.60;;;;;;5073913;28;20083;-74
2022/07/24 00:58:48;;;;;;;9.10;5.88;;;19.90;81.60;;;;;;5073811;28;20063;-74
2022/07/24 01:01:14;;;;;;;9.00;5.85;;;19.90;81.80;;;;;;5073906;28;20069;-73
2022/07/24 01:03:40;;;;;;;8.98;5.97;;;19.90;81.80;;;;;;5074022;28;20028;-73
2022/07/24 01:06:06;;;;;;;9.27;5.95;;;19.90;81.90;;;;;;5073781;28;20158;-73
2022/07/24 01:08:34;;;;;;;11.63;6.10;;;19.80;81.80;;;;;;5073849;28;20481;-74
2022/07/24 01:11:01;;;;;;;8.35;5.90;;;19.80;81.90;;;;;;5073816;28;20032;-74
2022/07/24 01:13:26;;;;;;;9.52;6.40;;;19.80;81.90;;;;;;5073638;28;20115;-73
2022/07/24 01:15:52;;;;;;;9.90;5.55;;;19.80;82.00;;;;;;5073735;28;20108;-74
2022/07/24 01:18:18;;;;;;;11.43;6.47;;;19.70;82.10;;;;;;5073738;28;20031;-73
2022/07/24 01:20:48;;;;;;;8.95;5.93;;;19.70;82.10;;;;;;5073449;28;20449;-73
2022/07/24 01:23:13;;;;;;;8.68;6.30;;;19.70;82.20;;;;;;5073673;28;20035;-73
2022/07/24 01:25:40;;;;;;;11.48;6.18;;;19.70;82.30;;;;;;5073550;28;20021;-74
2022/07/24 01:28:06;;;;;;;9.73;6.43;;;19.70;82.40;;;;;;5073568;28;20024;-74
2022/07/24 01:30:31;;;;;;;9.48;6.22;;;19.60;82.30;;;;;;5073453;28;20037;-74
2022/07/24 01:32:57;;;;;;;7.80;6.15;;;19.60;82.40;;;;;;5073519;28;20044;-73
2022/07/24 01:35:23;;;;;;;9.65;6.63;;;19.60;82.40;;;;;;5073391;28;20024;-74
2022/07/24 01:37:49;;;;;;;9.70;6.88;;;19.60;82.50;;;;;;5073354;28;20550;-74
2022/07/24 01:40:15;;;;;;;9.55;7.25;;;19.50;82.60;;;;;;5073225;28;20036;-75
2022/07/24 01:42:40;;;;;;;9.05;6.53;;;19.50;82.70;;;;;;5073347;28;20074;-75
2022/07/24 01:45:06;;;;;;;11.95;6.63;;;19.50;82.80;;;;;;5073333;28;20495;-74
2022/07/24 01:47:32;;;;;;;9.95;6.53;;;19.50;82.80;;;;;;5073342;28;20028;-75
2022/07/24 01:49:58;;;;;;;8.55;6.43;;;19.50;82.90;;;;;;5073178;28;20035;-74
2022/07/24 01:52:26;;;;;;;12.50;7.85;;;19.40;82.90;;;;;;5072721;28;20108;-75
2022/07/24 01:54:53;;;;;;;13.73;6.50;;;19.40;83.00;;;;;;5073240;28;20383;-74
2022/07/24 01:57:18;;;;;;;11.55;6.75;;;19.40;83.00;;;;;;5072987;28;20562;-75
2022/07/24 01:59:44;;;;;;;11.27;6.25;;;19.40;83.10;;;;;;5073207;28;20033;-74
2022/07/24 02:02:10;;;;;;;10.23;7.28;;;19.30;83.10;;;;;;5073156;28;20025;-74
2022/07/24 02:04:35;;;;;;;11.40;7.18;;;19.30;83.20;;;;;;5073086;28;20044;-74
2022/07/24 02:07:01;;;;;;;9.23;6.60;;;19.30;83.20;;;;;;5073171;28;20496;-74
2022/07/24 02:09:26;;;;;;;9.68;6.60;;;19.30;83.30;;;;;;5073054;28;20113;-74
2022/07/24 02:11:52;;;;;;;9.63;6.70;;;19.20;83.30;;;;;;5073037;28;20030;-74
2022/07/24 02:14:18;;;;;;;9.55;6.35;;;19.20;83.30;;;;;;5072848;28;20039;-74
2022/07/24 02:16:45;;;;;;;10.07;6.57;;;19.20;83.30;;;;;;5073007;28;20024;-75
2022/07/24 02:19:11;;;;;;;10.02;7.10;;;19.20;83.50;;;;;;5072856;28;20480;-74
2022/07/24 02:21:36;;;;;;;11.65;7.28;;;19.20;83.60;;;;;;5072952;28;20020;-74
2022/07/24 02:24:02;;;;;;;10.15;6.70;;;19.20;83.60;;;;;;5072885;28;20031;-74
2022/07/24 02:26:28;;;;;;;9.38;6.60;;;19.10;83.60;;;;;;5072822;28;20032;-75
2022/07/24 02:28:54;;;;;;;9.18;6.43;;;19.10;83.70;;;;;;5072976;28;20033;-74
2022/07/24 02:31:19;;;;;;;10.13;6.43;;;19.10;83.70;;;;;;5072857;28;20032;-74
2022/07/24 02:33:45;;;;;;;11.82;6.32;;;19.00;83.70;;;;;;5072805;28;20023;-74
2022/07/24 02:36:11;;;;;;;11.20;7.88;;;19.00;83.90;;;;;;5054935;28;20097;-75
2022/07/24 02:38:36;;;;;;;10.25;6.72;;;19.00;84.00;;;;;;5072714;28;20423;-74
2022/07/24 02:41:02;;;;;;;9.20;6.50;;;19.00;84.00;;;;;;5072559;28;20029;-74
2022/07/24 02:43:28;;;;;;;10.63;7.00;;;19.00;84.00;;;;;;5072557;28;20056;-74
2022/07/24 02:45:54;;;;;;;10.82;7.18;;;19.00;84.10;;;;;;5072697;28;20033;-75
2022/07/24 02:48:20;;;;;;;9.32;6.70;;;19.00;84.10;;;;;;5072699;28;20028;-74
2022/07/24 02:50:45;;;;;;;9.63;6.60;;;18.90;84.10;;;;;;5072589;28;20029;-74
2022/07/24 02:53:11;;;;;;;10.95;7.47;;;18.90;84.20;;;;;;5072603;28;20108;-74
2022/07/24 02:55:37;;;;;;;9.48;6.90;;;18.90;84.30;;;;;;5072818;28;20052;-75
2022/07/24 02:58:03;;;;;;;12.32;7.05;;;18.90;84.40;;;;;;5054497;28;20057;-75
2022/07/24 03:00:29;;;;;;;9.43;6.30;;;18.80;84.40;;;;;;5072440;28;20055;-75
2022/07/24 03:02:55;;;;;;;11.75;8.07;;;18.80;84.60;;;;;;5067406;28;20032;-74
2022/07/24 03:05:21;;;;;;;10.13;7.72;;;18.80;85.00;;;;;;5074778;28;20040;-75
2022/07/24 03:07:47;;;;;;;11.80;8.02;;;18.80;85.20;;;;;;5075959;28;20032;-74
2022/07/24 03:10:13;;;;;;;10.75;7.63;;;18.80;85.40;;;;;;5076624;28;20377;-74
2022/07/24 03:12:39;;;;;;;11.25;7.57;;;18.80;85.60;;;;;;5076641;28;20046;-74
2022/07/24 03:15:06;;;;;;;10.43;6.63;;;18.70;86.00;;;;;;5076216;28;20121;-74
2022/07/24 03:17:32;;;;;;;16.80;7.38;;;18.70;86.40;;;;;;5076455;28;20067;-74
2022/07/24 03:19:57;;;;;;;10.80;7.88;;;18.60;86.40;;;;;;5076368;28;20109;-74
2022/07/24 03:22:23;;;;;;;12.77;8.00;;;18.60;86.70;;;;;;5076360;28;20465;-75
2022/07/24 03:24:49;;;;;;;13.77;8.25;;;18.60;86.80;;;;;;5076429;28;20025;-75
2022/07/24 03:27:15;;;;;;;10.57;7.85;;;18.50;86.90;;;;;;5076200;28;20103;-74
2022/07/24 03:29:40;;;;;;;11.73;7.88;;;18.50;87.30;;;;;;5075882;28;20032;-74
2022/07/24 03:32:06;;;;;;;12.65;8.10;;;18.40;87.40;;;;;;5076118;28;20100;-75
2022/07/24 03:34:32;;;;;;;10.73;8.07;;;18.40;87.60;;;;;;5076278;28;20052;-75
2022/07/24 03:36:58;;;;;;;12.65;7.93;;;18.40;87.90;;;;;;5075996;28;20024;-74
2022/07/24 03:39:23;;;;;;;11.52;8.05;;;18.30;88.30;;;;;;5075961;28;20472;-75
2022/07/24 03:41:49;;;;;;;13.32;8.43;;;18.30;88.60;;;;;;5076051;28;20025;-74
2022/07/24 03:44:15;;;;;;;11.85;8.50;;;18.30;88.90;;;;;;5076340;28;20422;-74
2022/07/24 03:46:41;;;;;;;10.90;8.60;;;18.30;89.10;;;;;;5075851;28;20033;-74
2022/07/24 03:49:06;;;;;;;12.27;8.60;;;18.30;89.00;;;;;;5076172;28;20492;-74
2022/07/24 03:51:34;;;;;;;12.57;8.27;;;18.30;89.10;;;;;;5076160;28;20346;-74
2022/07/24 03:54:01;;;;;;;12.32;8.77;;;18.30;89.20;;;;;;5075689;28;20036;-75
2022/07/24 03:56:28;;;;;;;14.23;8.75;;;18.20;89.20;;;;;;5075881;28;20056;-75
2022/07/24 03:58:54;;;;;;;13.10;9.30;;;18.30;89.20;;;;;;5057549;28;20039;-75
2022/07/24 04:01:20;;;;;;;11.07;8.80;;;18.30;89.10;;;;;;5057446;28;20032;-75
2022/07/24 04:03:45;;;;;;;11.20;8.35;;;18.30;89.10;;;;;;5075276;28;20384;-75
2022/07/24 04:06:11;;;;;;;12.40;9.27;;;18.30;89.30;;;;;;5075405;28;20056;-75
2022/07/24 04:08:37;;;;;;;15.07;9.80;;;18.30;89.40;;;;;;5057985;28;20066;-75
2022/07/24 04:11:02;;;;;;;14.10;9.52;;;18.30;89.40;;;;;;5075582;28;20032;-75
2022/07/24 04:13:30;;;;;;;12.35;8.60;;;18.30;89.40;;;;;;5075542;28;20033;-75
2022/07/24 04:15:56;;;;;;;13.88;9.95;;;18.30;89.40;;;;;;5070221;28;20103;-75
2022/07/24 04:18:22;;;;;;;16.58;10.30;;;18.30;89.40;;;;;;5074865;28;20012;-73
2022/07/24 04:20:49;;;;;;;13.98;9.40;;;18.30;89.30;;;;;;5068651;28;20067;-75
2022/07/24 04:23:15;;;;;;;15.10;10.35;;;18.30;89.90;;;;;;5068453;28;20017;-75
2022/07/24 04:25:40;;;;;;;14.63;10.48;;;18.30;89.30;;;;;;5070939;28;20031;-75
2022/07/24 04:28:06;;;;;;;14.50;10.50;;;18.30;89.20;;;;;;5073201;28;20024;-75
2022/07/24 04:30:32;;;;;;;14.27;10.57;;;18.30;89.20;;;;;;5074154;28;20033;-75
2022/07/24 04:32:57;;;;;;;13.40;10.20;;;18.30;89.30;;;;;;5071960;28;20121;-74
2022/07/24 04:35:23;;;;;;;15.05;11.20;;;18.30;89.20;;;;;;5074432;28;20040;-75
2022/07/24 04:37:49;;;;;;;12.65;10.60;;;18.30;89.30;;;;;;5074001;28;20046;-75
2022/07/24 04:40:14;;;;;;;12.88;10.18;;;18.30;89.20;;;;;;5074101;28;20082;-75
2022/07/24 04:42:40;;;;;;;14.43;10.95;;;18.30;89.80;;;;;;5074936;28;20024;-75
2022/07/24 04:45:08;;;;;;;13.80;10.63;;;18.20;89.40;;;;;;5074731;28;20013;-75
2022/07/24 04:47:34;;;;;;;14.88;11.75;;;18.20;89.50;;;;;;5074070;28;20096;-75
2022/07/24 04:50:00;;;;;;;14.30;10.43;;;18.20;89.40;;;;;;5074561;28;20056;-75
2022/07/24 04:52:25;;;;;;;15.25;11.45;;;18.20;89.60;;;;;;5074731;28;20032;-75
2022/07/24 04:54:51;;;;;;;13.48;11.20;;;18.30;89.60;;;;;;5074335;28;20033;-75
2022/07/24 04:57:17;;;;;;;17.02;12.20;;;18.30;89.60;;;;;;5074287;28;20056;-75
2022/07/24 04:59:42;;;;;;;15.02;11.32;;;18.30;89.70;;;;;;5074470;28;20078;-74
2022/07/24 05:02:08;;;;;;;15.85;12.32;;;18.30;90.10;;;;;;5074416;28;20067;-75
2022/07/24 05:04:34;;;;;;;16.45;11.55;;;18.30;89.70;;;;;;5074267;28;20074;-75
2022/07/24 05:07:00;;;;;;;20.77;11.98;;;18.30;89.80;;;;;;5074396;28;20016;-74
2022/07/24 05:09:27;;;;;;;13.88;11.45;;;18.30;89.90;;;;;;5074208;28;20492;-74
2022/07/24 05:11:53;;;;;;;20.00;11.90;;;18.30;89.90;;;;;;5074009;28;20048;-75
2022/07/24 05:14:18;;;;;;;16.05;12.57;;;18.40;90.00;;;;;;5074335;28;20492;-74
2022/07/24 05:16:44;;;;;;;15.15;11.82;;;18.40;90.00;;;;;;5074043;28;20036;-75
2022/07/24 05:19:10;;;;;;;16.15;12.18;;;18.40;90.00;;;;;;5056096;28;20442;-75
2022/07/24 05:21:35;;;;;;;17.75;13.30;;;18.40;90.00;;;;;;5073938;28;20074;-75
2022/07/24 05:24:02;;;;;;;16.88;13.20;;;18.40;90.00;;;;;;5073687;28;20036;-72
2022/07/24 05:26:28;;;;;;;16.33;12.57;;;18.50;90.10;;;;;;5073623;28;20044;-75
2022/07/24 05:28:54;;;;;;;18.67;13.63;;;18.50;90.20;;;;;;5073411;28;20028;-75
2022/07/24 05:31:20;;;;;;;19.92;13.65;;;18.50;90.20;;;;;;5073854;28;20032;-75
2022/07/24 05:33:45;;;;;;;18.60;13.50;;;18.50;90.20;;;;;;5074080;28;20032;-75
2022/07/24 05:36:11;;;;;;;17.88;14.32;;;18.60;90.30;;;;;;5073694;28;20119;-75
2022/07/24 05:38:37;;;;;;;21.25;15.65;;;18.60;90.40;;;;;;5073872;28;20035;-74
2022/07/24 05:41:02;;;;;;;19.88;15.80;;;18.60;90.50;;;;;;5073611;28;20039;-74
2022/07/24 05:43:28;;;;;;;23.30;16.77;;;18.70;90.60;;;;;;5073381;28;20062;-74
2022/07/24 05:45:54;;;;;;;20.38;15.70;;;18.70;90.60;;;;;;5073772;28;20044;-73
2022/07/24 05:48:19;;;;;;;21.80;16.92;;;18.70;90.70;;;;;;5073746;28;20103;-74
2022/07/24 05:50:45;;;;;;;20.20;16.50;;;18.70;90.70;;;;;;5073586;28;20074;-75
2022/07/24 05:53:10;;;;;;;22.58;17.52;;;18.80;90.80;;;;;;5073574;28;20376;-74
2022/07/24 05:55:36;;;;;;;21.33;16.35;;;18.80;90.90;;;;;;5073658;28;20024;-75
2022/07/24 05:58:03;;;;;;;21.67;16.25;;;18.90;90.90;;;;;;5073455;28;20127;-75
2022/07/24 06:00:29;;;;;;;18.05;14.57;;;18.80;90.90;;;;;;5073184;28;20048;-75
2022/07/24 06:02:55;;;;;;;21.77;17.48;;;18.90;90.90;;;;;;5089038;28;20485;-75
2022/07/24 06:05:20;;;;;;;22.40;17.25;;;18.90;91.00;;;;;;5073212;28;20078;-75
2022/07/24 06:07:46;;;;;;;23.08;17.27;;;19.00;91.10;;;;;;5073237;28;20082;-74
2022/07/24 06:10:12;;;;;;;20.50;16.63;;;19.00;91.10;;;;;;5073033;28;20032;-76
2022/07/24 06:12:38;;;;;;;21.67;16.50;;;19.00;91.20;;;;;;5088876;28;20043;-74
2022/07/24 06:15:04;;;;;;;22.60;16.77;;;19.10;91.30;;;;;;5071990;28;20029;-74
2022/07/24 06:17:29;;;;;;;23.02;17.40;;;19.10;91.30;;;;;;5068879;28;20118;-75
2022/07/24 06:19:55;;;;;;;20.60;16.08;;;19.10;91.30;;;;;;5052700;28;20127;-75
2022/07/24 06:22:21;;;;;;;21.20;16.50;;;19.10;91.30;;;;;;5052628;28;20013;-75
2022/07/24 06:24:46;;;;;;;27.73;18.25;;;19.20;91.40;;;;;;5052874;28;20029;-75
2022/07/24 06:27:12;;;;;;;20.20;16.42;;;19.30;91.60;;;;;;5052739;28;20100;-75
2022/07/24 06:29:37;;;;;;;24.98;16.48;;;19.30;91.50;;;;;;5052843;28;20039;-76
2022/07/24 06:32:03;;;;;;;18.33;15.52;;;19.20;91.50;;;;;;5035034;28;20033;-74
2022/07/24 06:34:29;;;;;;;20.15;15.10;;;19.30;91.50;;;;;;5052641;28;20064;-74
2022/07/24 06:36:55;;;;;;;19.00;15.30;;;19.40;91.50;;;;;;5052683;28;20025;-74
2022/07/24 06:39:20;;;;;;;20.65;14.73;;;19.40;91.40;;;;;;5054747;28;20074;-75
2022/07/24 06:41:46;;;;;;;19.20;13.93;;;19.40;91.30;;;;;;5056664;28;20025;-75
2022/07/24 06:44:12;;;;;;;17.55;11.80;;;19.50;91.20;;;;;;5056488;28;20029;-75
2022/07/24 06:46:37;;;;;;;20.45;14.35;;;19.50;91.10;;;;;;5056471;28;20028;-75
2022/07/24 06:49:03;;;;;;;18.17;13.02;;;19.60;91.00;;;;;;5056428;28;20044;-75
2022/07/24 06:51:28;;;;;;;19.00;12.02;;;19.60;90.90;;;;;;5056445;28;20028;-75
2022/07/24 06:53:54;;;;;;;16.42;12.57;;;19.70;90.80;;;;;;5038644;28;20037;-76
2022/07/24 06:56:20;;;;;;;16.05;12.95;;;19.70;90.60;;;;;;5056278;28;20052;-75
2022/07/24 06:58:46;;;;;;;15.90;10.88;;;19.80;90.50;;;;;;5056411;28;20112;-75
2022/07/24 07:01:11;;;;;;;15.55;10.95;;;19.80;90.40;;;;;;5068168;28;20036;-74
2022/07/24 07:03:37;;;;;;;13.45;10.15;;;19.80;90.10;;;;;;5056112;28;20032;-75
2022/07/24 07:06:03;;;;;;;13.13;9.48;;;19.90;89.90;;;;;;5074975;28;20048;-75
2022/07/24 07:08:29;;;;;;;14.95;10.10;;;19.90;89.70;;;;;;5075742;28;20484;-75
2022/07/24 07:10:55;;;;;;;10.80;8.30;;;20.00;89.30;;;;;;5075480;28;20036;-74
2022/07/24 07:13:20;;;;;;;10.60;7.38;;;20.00;88.70;;;;;;5075708;28;20028;-74
2022/07/24 07:15:46;;;;;;;9.90;6.95;;;20.10;88.20;;;;;;5075475;28;20100;-74
2022/07/24 07:18:12;;;;;;;11.15;6.85;;;20.10;87.80;;;;;;5057372;28;20039;-74
2022/07/24 07:20:37;;;;;;;9.98;6.10;;;20.20;87.50;;;;;;5075417;28;20021;-75
2022/07/24 07:23:03;;;;;;;12.93;7.00;;;20.20;87.00;;;;;;5075922;28;20033;-76
2022/07/24 07:25:29;;;;;;;9.23;6.35;;;20.30;86.60;;;;;;5075880;28;20376;-75
2022/07/24 07:27:54;;;;;;;8.93;5.88;;;20.30;86.20;;;;;;5075454;28;20473;-75
2022/07/24 07:30:21;;;;;;;8.10;5.25;;;20.40;86.00;;;;;;5075715;28;20039;-75
2022/07/24 07:32:47;;;;;;;8.13;5.65;;;20.40;85.70;;;;;;5075744;28;20020;-75
2022/07/24 07:35:12;;;;;;;7.93;5.30;;;20.50;85.50;;;;;;5075766;28;20115;-75
2022/07/24 07:37:38;;;;;;;10.07;6.60;;;20.50;85.30;;;;;;5075745;28;20396;-74
2022/07/24 07:40:04;;;;;;;8.35;4.93;;;20.60;84.20;;;;;;5075633;28;20044;-75
2022/07/24 07:42:30;;;;;;;6.63;4.38;;;20.70;83.80;;;;;;5075739;28;20044;-75
2022/07/24 07:44:55;;;;;;;10.15;4.82;;;20.70;83.20;;;;;;5075395;28;20470;-75
2022/07/24 07:47:21;;;;;;;7.25;3.95;;;20.80;82.30;;;;;;5075571;28;20028;-75
2022/07/24 07:49:47;;;;;;;6.95;3.33;;;20.90;81.70;;;;;;5074758;28;20040;-74
2022/07/24 07:52:12;;;;;;;4.90;2.78;;;20.90;81.10;;;;;;5057124;28;20033;-76
2022/07/24 07:54:38;;;;;;;6.88;3.05;;;20.90;80.10;;;;;;5075413;28;20028;-75
2022/07/24 07:57:04;;;;;;;5.15;3.03;;;21.10;79.40;;;;;;5075073;28;20094;-72
2022/07/24 07:59:30;;;;;;;6.00;3.40;;;21.10;78.60;;;;;;5075090;28;20095;-74
2022/07/24 08:01:55;;;;;;;5.40;3.28;;;21.20;78.30;;;;;;5075097;28;20469;-73
2022/07/24 08:04:21;;;;;;;5.40;2.13;;;21.30;78.30;;;;;;5075094;28;20029;-74
2022/07/24 08:06:46;;;;;;;7.40;3.40;;;21.30;78.40;;;;;;5074520;28;20031;-73
2022/07/24 08:09:12;;;;;;;4.85;2.55;;;21.40;77.20;;;;;;5073445;28;20056;-73
2022/07/24 08:11:38;;;;;;;6.93;2.70;;;21.50;76.90;;;;;;5073157;28;20033;-73
2022/07/24 08:14:04;;;;;;;5.10;2.42;;;21.50;75.90;;;;;;5074828;28;20028;-73
2022/07/24 08:16:30;;;;;;;5.10;2.78;;;21.60;74.70;;;;;;5074584;28;20107;-73
2022/07/24 08:18:56;;;;;;;4.60;2.55;;;21.60;73.90;;;;;;5074821;28;20495;-73
2022/07/24 08:21:22;;;;;;;5.95;2.60;;;21.70;73.30;;;;;;5074897;28;20028;-73
2022/07/24 08:23:48;;;;;;;6.63;3.22;;;21.70;73.60;;;;;;5074912;28;20029;-74
2022/07/24 08:26:15;;;;;;;6.05;2.80;;;21.80;72.50;;;;;;5056797;28;20040;-74
2022/07/24 08:28:40;;;;;;;4.07;2.60;;;21.90;72.80;;;;;;5074557;28;20027;-74
2022/07/24 08:31:06;;;;;;;5.35;2.83;;;21.90;72.50;;;;;;5074643;28;20032;-75
2022/07/24 08:33:32;;;;;;;6.28;2.95;;;22.00;72.30;;;;;;5074724;28;20408;-73
2022/07/24 08:35:58;;;;;;;6.85;2.95;;;22.10;72.00;;;;;;5058589;28;20086;-75
2022/07/24 08:38:23;;;;;;;7.82;3.67;;;22.10;71.80;;;;;;5074049;28;20103;-75
2022/07/24 08:40:50;;;;;;;5.75;3.35;;;22.20;71.60;;;;;;5073826;28;20456;-74
2022/07/24 08:43:16;;;;;;;5.47;2.97;;;22.20;71.40;;;;;;5074155;28;20386;-75
2022/07/24 08:45:43;;;;;;;6.05;3.50;;;22.30;71.70;;;;;;5070072;28;20021;-74
2022/07/24 08:48:10;;;;;;;6.20;3.45;;;22.40;71.60;;;;;;5074090;28;20104;-73
2022/07/24 08:50:39;;;;;;;6.90;3.35;;;22.50;71.30;;;;;;5073877;28;20025;-73
2022/07/24 08:53:05;;;;;;;3.78;1.98;;;22.50;71.20;;;;;;5074516;28;20070;-74
2022/07/24 08:55:32;;;;;;;4.47;2.22;;;22.60;71.20;;;;;;5074373;28;20051;-73
2022/07/24 08:57:59;;;;;;;3.80;2.58;;;22.60;70.70;;;;;;5074071;28;20065;-73
2022/07/24 09:00:26;;;;;;;4.03;2.35;;;22.70;70.00;;;;;;5073647;28;20052;-73
2022/07/24 09:02:53;;;;;;;5.40;2.63;;;22.70;70.00;;;;;;5074241;28;20025;-73
2022/07/24 09:05:19;;;;;;;4.40;2.13;;;22.80;70.00;;;;;;5074619;28;20086;-73
2022/07/24 09:07:45;;;;;;;4.25;1.88;;;22.90;69.90;;;;;;5074578;28;20021;-73
2022/07/24 09:10:18;;;;;;;3.17;1.77;;;22.90;68.90;;;;;;5073469;28;20086;-74
2022/07/24 09:12:46;;;;;;;4.43;2.13;;;23.00;68.20;;;;;;5073812;28;20104;-75
2022/07/24 09:15:20;;;;;;;3.28;1.67;;;23.00;67.80;;;;;;5073811;28;20016;-75
2022/07/24 09:17:52;;;;;;;4.55;1.95;;;23.10;67.80;;;;;;5073638;28;20032;-74
2022/07/24 09:20:19;;;;;;;6.03;1.65;;;23.20;67.90;;;;;;5055652;28;20021;-75
2022/07/24 09:22:44;;;;;;;3.60;1.75;;;23.30;67.70;;;;;;5055226;28;20148;-74
2022/07/24 09:25:16;;;;;;;3.70;1.80;;;23.30;67.30;;;;;;5074113;28;20117;-73
2022/07/24 09:28:02;;;;;;;5.43;1.70;;;23.40;66.70;;;;;;5073948;28;20441;-74
2022/07/24 09:30:34;;;;;;;4.13;1.98;;;23.40;66.00;;;;;;5073947;28;20428;-74
2022/07/24 09:33:00;;;;;;;4.63;1.80;;;23.50;66.10;;;;;;5073935;28;20047;-74
2022/07/24 09:35:31;;;;;;;4.53;2.13;;;23.60;66.20;;;;;;5073871;28;20544;-74
2022/07/24 09:37:58;;;;;;;3.83;1.95;;;23.60;66.30;;;;;;5073689;28;20414;-75
2022/07/24 09:40:36;;;;;;;3.58;1.70;;;23.70;65.80;;;;;;5073604;28;20131;-74
2022/07/24 09:43:18;;;;;;;3.85;1.90;;;23.80;65.50;;;;;;5073559;28;20395;-75
2022/07/24 09:46:00;;;;;;;3.70;2.13;;;23.80;65.50;;;;;;5073823;28;20102;-75
2022/07/24 09:48:30;;;;;;;4.20;1.80;;;23.90;65.50;;;;;;5073712;28;20472;-74
2022/07/24 09:50:58;;;;;;;3.08;1.77;;;24.00;65.50;;;;;;5073823;28;20028;-74
2022/07/24 09:53:27;;;;;;;2.83;1.80;;;24.00;65.40;;;;;;5073547;28;20029;-76
2022/07/24 09:56:14;;;;;;;3.03;1.75;;;24.10;65.30;;;;;;5072977;28;20082;-76
2022/07/24 09:58:52;;;;;;;4.00;1.58;;;24.20;65.40;;;;;;5053477;28;20099;-76
2022/07/24 10:01:20;;;;;;;3.33;1.48;;;24.20;65.60;;;;;;5053411;28;20017;-76
2022/07/24 10:03:47;;;;;;;3.58;1.60;;;24.30;65.60;;;;;;5053646;28;20465;-76
2022/07/24 10:06:14;;;;;;;2.55;1.30;;;24.30;65.70;;;;;;5053632;28;20092;-77
2022/07/24 10:08:45;;;;;;;2.70;1.50;;;24.30;65.70;;;;;;5036052;28;20535;-76
2022/07/24 10:11:12;;;;;;;3.92;1.73;;;24.40;65.10;;;;;;5036018;28;20040;-76
2022/07/24 10:13:39;;;;;;;2.80;1.50;;;24.40;65.10;;;;;;5072765;28;20037;-75
2022/07/24 10:16:13;;;;;;;3.30;1.20;;;24.50;65.00;;;;;;5073255;28;20039;-76
2022/07/24 10:18:52;;;;;;;2.65;1.40;;;24.60;65.10;;;;;;5055040;28;20072;-76
2022/07/24 10:21:19;;;;;;;3.05;1.65;;;24.60;65.10;;;;;;5073291;28;20476;-76
2022/07/24 10:24:06;;;;;;;2.97;1.58;;;24.70;65.00;;;;;;5073125;28;20473;-77
2022/07/24 10:26:48;;;;;;;2.53;1.50;;;24.80;64.70;;;;;;5073552;28;20096;-76
2022/07/24 10:29:15;;;;;;;2.67;1.58;;;24.90;64.40;;;;;;5073236;28;20044;-76
2022/07/24 10:31:43;;;;;;;3.35;1.42;;;25.00;64.00;;;;;;5055395;28;20020;-76
2022/07/24 10:34:27;;;;;;;2.33;1.08;;;25.00;63.70;;;;;;5055364;28;20028;-76
2022/07/24 10:37:21;;;;;;;2.63;1.30;;;25.10;62.90;;;;;;5073012;28;20025;-76
2022/07/24 10:40:08;;;;;;;;;;;25.20;62.60;;;;;;5055375;28;20024;-76
2022/07/24 10:42:53;;;;;;;3.80;1.38;;;25.30;62.50;;;;;;5073378;28;19904;-76
2022/07/24 10:45:19;;;;;;;4.20;1.58;;;25.60;62.40;;;;;;5071851;28;20502;-77
2022/07/24 10:47:45;;;;;;;2.63;1.50;;;25.80;61.90;;;;;;5071674;28;20020;-77
2022/07/24 10:50:14;;;;;;;2.53;1.40;;;25.90;61.30;;;;;;5072788;28;20602;-77
2022/07/24 10:52:41;;;;;;;4.43;1.30;;;26.10;60.80;;;;;;5054953;28;20329;-76
2022/07/24 10:55:39;;;;;;;2.40;1.45;;;26.20;60.20;;;;;;5072537;28;20123;-76
2022/07/24 10:58:10;;;;;;;2.30;1.33;;;26.40;59.80;;;;;;5003056;28;20037;-77
2022/07/24 11:00:40;;;;;;;3.40;1.67;;;26.50;59.70;;;;;;5052636;28;20085;-76
2022/07/24 11:03:08;;;;;;;3.92;1.27;;;26.70;59.40;;;;;;5052725;28;20048;-75
2022/07/24 11:05:38;;;;;;;2.45;1.10;;;26.90;59.10;;;;;;5052219;28;20092;-75
2022/07/24 11:08:20;;;;;;;4.63;1.13;;;27.10;58.80;;;;;;5052562;28;20029;-76
2022/07/24 11:10:51;;;;;;;2.28;1.10;;;27.30;58.10;;;;;;5052928;28;20452;-75
2022/07/24 11:13:31;;;;;;;3.70;1.30;;;27.50;58.10;;;;;;5053135;28;20362;-76
2022/07/24 11:16:15;;;;;;;2.30;1.20;;;27.70;56.90;;;;;;5052601;28;20029;-76
2022/07/24 11:19:01;;;;;;;2.40;1.00;;;27.90;56.60;;;;;;5051241;28;20033;-77
2022/07/24 11:21:41;;;;;;;2.63;1.10;;;28.10;56.60;;;;;;5052376;28;20505;-75
2022/07/24 11:24:27;;;;;;;2.45;1.20;;;28.20;56.50;;;;;;5052474;28;20021;-75
2022/07/24 11:26:55;;;;;;;2.78;1.15;;;28.40;56.20;;;;;;5055147;28;20428;-75
2022/07/24 11:29:51;;;;;;;3.30;1.27;;;28.50;56.10;;;;;;5056014;28;20460;-75
2022/07/24 11:32:20;;;;;;;2.15;1.13;;;28.70;55.50;;;;;;5054619;28;20039;-76
2022/07/24 11:34:48;;;;;;;1.23;0.80;;;29.00;55.70;;;;;;5056323;28;20474;-77
2022/07/24 11:37:14;;;;;;;1.67;1.10;;;29.20;55.30;;;;;;5056178;28;20040;-76
2022/07/24 11:39:42;;;;;;;2.17;0.90;;;29.40;54.80;;;;;;5056158;28;20393;-76
2022/07/24 11:42:10;;;;;;;2.85;1.25;;;29.60;54.60;;;;;;5056037;28;20544;-76
2022/07/24 11:44:43;;;;;;;2.50;1.30;;;29.80;54.40;;;;;;5055773;28;20036;-76
2022/07/24 11:47:13;;;;;;;2.78;1.15;;;30.00;53.90;;;;;;5055785;28;20105;-76
2022/07/24 11:49:45;;;;;;;2.45;1.08;;;30.10;53.60;;;;;;5056057;28;20040;-77
2022/07/24 11:52:17;;;;;;;2.17;1.08;;;30.30;53.40;;;;;;5055479;28;20017;-76
2022/07/24 11:54:42;;;;;;;1.67;1.02;;;30.50;53.10;;;;;;5055577;28;20024;-76
2022/07/24 11:57:29;;;;;;;2.03;1.23;;;30.60;52.80;;;;;;5064439;28;20515;-77
2022/07/24 11:59:55;;;;;;;3.35;0.85;;;30.80;51.80;;;;;;5075639;28;20067;-76
2022/07/24 12:02:21;;;;;;;3.70;1.20;;;31.00;51.80;;;;;;5057650;28;20056;-77
2022/07/24 12:04:48;;;;;;;2.10;1.00;;;31.20;51.50;;;;;;5057813;28;20024;-77
2022/07/24 12:07:24;;;;;;;1.85;0.98;;;31.30;51.20;;;;;;5075591;28;20143;-76
2022/07/24 12:09:52;;;;;;;3.60;1.20;;;31.50;50.90;;;;;;5075008;28;20040;-76
2022/07/24 12:12:39;;;;;;;2.55;1.10;;;31.60;50.70;;;;;;5075270;28;20102;-77
2022/07/24 12:15:13;;;;;;;2.17;1.00;;;31.80;50.10;;;;;;5075208;28;20020;-78
2022/07/24 12:18:05;;;;;;;5.55;1.25;;;32.10;50.20;;;;;;5075285;28;20477;-79
2022/07/24 12:20:33;;;;;;;1.73;0.90;;;32.30;49.40;;;;;;5057230;28;20028;-78
2022/07/24 12:23:01;;;;;;;2.17;1.10;;;32.40;49.60;;;;;;5073825;28;20021;-79
2022/07/24 12:25:28;;;;;;;4.22;1.15;;;32.60;49.10;;;;;;5072356;28;20037;-77
2022/07/24 12:28:08;;;;;;;2.33;1.35;;;32.80;48.80;;;;;;5066807;28;20032;-77
2022/07/24 12:30:37;;;;;;;2.50;0.95;;;32.90;48.30;;;;;;5068641;28;20465;-78
2022/07/24 12:33:18;;;;;;;2.95;1.00;;;33.10;48.40;;;;;;5073494;28;20481;-77
2022/07/24 12:35:59;;;;;;;3.08;1.27;;;33.40;48.40;;;;;;5065250;28;20037;-77
2022/07/24 12:38:34;;;;;;;4.22;1.50;;;33.60;47.40;;;;;;5044288;28;20033;-77
2022/07/24 12:41:08;;;;;;;2.22;1.15;;;33.60;47.30;;;;;;5063226;28;20024;-77
2022/07/24 12:43:56;;;;;;;1.60;0.90;;;33.80;47.20;;;;;;5062079;28;20035;-77